Time,TemperatureF,DewpointF,PressureIn,WindDirection,WindDirectionDegrees,WindSpeedMPH,WindSpeedGustMPH,Humidity,HourlyPrecipIn,Conditions,Clouds,dailyrainin,SoftwareType,DateUTC
2013-01-18 00:03:00,41.9,31.8,30.53,North,0,1.0,2.0,67,0.00,,,0.00,meteohub,2013-01-18 06:03:00,
2013-01-18 00:08:00,41.9,31.8,30.53,North,0,2.0,2.0,67,0.00,,,0.00,meteohub,2013-01-18 06:08:00,
2013-01-18 00:13:00,41.7,31.6,30.54,North,0,1.0,2.0,67,0.00,,,0.00,meteohub,2013-01-18 06:13:00,
2013-01-18 00:18:00,41.7,31.6,30.53,NW,315,2.0,2.0,67,0.00,,,0.00,meteohub,2013-01-18 06:18:00,
2013-01-18 00:23:00,41.9,31.8,30.54,NW,315,0.0,2.0,67,0.00,,,0.00,meteohub,2013-01-18 06:23:00,
2013-01-18 00:28:00,41.5,31.1,30.54,North,0,1.0,2.0,66,0.00,,,0.00,meteohub,2013-01-18 06:28:00,
2013-01-18 00:33:00,41.2,31.1,30.54,North,0,2.0,2.0,67,0.00,,,0.00,meteohub,2013-01-18 06:33:00,
2013-01-18 00:38:00,41.2,31.1,30.54,North,0,0.0,2.0,67,0.00,,,0.00,meteohub,2013-01-18 06:38:00,
2013-01-18 00:43:00,41.2,31.5,30.54,NW,315,2.0,2.0,68,0.00,,,0.00,meteohub,2013-01-18 06:43:00,
2013-01-18 00:48:00,41.4,32.0,30.54,NW,315,0.0,2.0,69,0.00,,,0.00,meteohub,2013-01-18 06:48:00,
2013-01-18 00:53:00,41.4,31.6,30.54,North,0,1.0,2.0,68,0.00,,,0.00,meteohub,2013-01-18 06:53:00,
2013-01-18 00:58:00,41.2,31.5,30.54,NW,315,2.0,2.0,68,0.00,,,0.00,meteohub,2013-01-18 06:58:00,
2013-01-18 01:03:00,41.2,31.8,30.54,NW,315,0.0,2.0,69,0.00,,,0.00,meteohub,2013-01-18 07:03:00,
2013-01-18 01:08:00,41.0,31.6,30.54,NW,315,2.0,2.0,69,0.00,,,0.00,meteohub,2013-01-18 07:08:00,
2013-01-18 01:13:00,40.6,31.6,30.54,North,0,2.0,2.0,70,0.00,,,0.00,meteohub,2013-01-18 07:13:00,
2013-01-18 01:18:00,40.3,31.3,30.54,North,0,1.0,2.0,70,0.00,,,0.00,meteohub,2013-01-18 07:18:00,
2013-01-18 01:23:00,40.3,31.6,30.54,NE,45,1.0,2.0,71,0.00,,,0.00,meteohub,2013-01-18 07:23:00,
2013-01-18 01:28:00,40.5,31.8,30.55,NE,45,1.0,2.0,71,0.00,,,0.00,meteohub,2013-01-18 07:28:00,
2013-01-18 01:33:00,40.5,31.5,30.55,NE,45,0.0,2.0,70,0.00,,,0.00,meteohub,2013-01-18 07:33:00,
2013-01-18 01:38:00,40.6,31.6,30.55,East,90,1.0,1.0,70,0.00,,,0.00,meteohub,2013-01-18 07:38:00,
2013-01-18 01:43:00,40.5,31.5,30.55,NW,315,1.0,1.0,70,0.00,,,0.00,meteohub,2013-01-18 07:43:00,
2013-01-18 01:48:00,40.3,31.3,30.55,NE,45,2.0,2.0,70,0.00,,,0.00,meteohub,2013-01-18 07:48:00,
2013-01-18 01:53:00,40.3,31.3,30.55,NE,45,2.0,2.0,70,0.00,,,0.00,meteohub,2013-01-18 07:53:00,
2013-01-18 01:58:00,40.3,31.6,30.55,NW,315,1.0,2.0,71,0.00,,,0.00,meteohub,2013-01-18 07:58:00,
2013-01-18 02:03:00,40.1,31.5,30.55,NW,315,0.0,2.0,71,0.00,,,0.00,meteohub,2013-01-18 08:03:00,
2013-01-18 02:08:00,39.9,31.3,30.55,NW,315,0.0,2.0,71,0.00,,,0.00,meteohub,2013-01-18 08:08:00,
2013-01-18 02:13:00,39.9,31.3,30.55,North,0,1.0,1.0,71,0.00,,,0.00,meteohub,2013-01-18 08:13:00,
2013-01-18 02:18:00,39.9,31.3,30.55,West,270,1.0,2.0,71,0.00,,,0.00,meteohub,2013-01-18 08:18:00,
2013-01-18 02:23:00,39.9,31.3,30.55,NW,315,0.0,2.0,71,0.00,,,0.00,meteohub,2013-01-18 08:23:00,
2013-01-18 02:28:00,39.9,31.3,30.55,NW,315,0.0,2.0,71,0.00,,,0.00,meteohub,2013-01-18 08:28:00,
2013-01-18 02:33:00,39.6,30.9,30.55,NW,315,1.0,2.0,71,0.00,,,0.00,meteohub,2013-01-18 08:33:00,
2013-01-18 02:38:00,39.4,30.7,30.55,NW,315,0.0,2.0,71,0.00,,,0.00,meteohub,2013-01-18 08:38:00,
2013-01-18 02:43:00,39.0,30.7,30.55,NW,315,1.0,1.0,72,0.00,,,0.00,meteohub,2013-01-18 08:43:00,
2013-01-18 02:48:00,39.0,30.7,30.55,North,0,2.0,2.0,72,0.00,,,0.00,meteohub,2013-01-18 08:48:00,
2013-01-18 02:53:00,39.4,31.1,30.55,NW,315,1.0,2.0,72,0.00,,,0.00,meteohub,2013-01-18 08:53:00,
2013-01-18 02:58:00,39.0,31.1,30.55,NW,315,2.0,2.0,73,0.00,,,0.00,meteohub,2013-01-18 08:58:00,
2013-01-18 03:03:00,38.5,30.6,30.55,NW,315,1.0,2.0,73,0.00,,,0.00,meteohub,2013-01-18 09:03:00,
2013-01-18 03:08:00,38.7,31.1,30.55,NW,315,2.0,2.0,74,0.00,,,0.00,meteohub,2013-01-18 09:08:00,
2013-01-18 03:13:00,39.0,31.5,30.55,NW,315,2.0,2.0,74,0.00,,,0.00,meteohub,2013-01-18 09:13:00,
2013-01-18 03:19:00,39.0,31.5,30.54,North,0,1.0,2.0,74,0.00,,,0.00,meteohub,2013-01-18 09:19:00,
2013-01-18 03:24:00,38.8,31.3,30.54,NW,315,2.0,2.0,74,0.00,,,0.00,meteohub,2013-01-18 09:24:00,
2013-01-18 03:29:00,39.2,31.3,30.54,North,0,2.0,2.0,73,0.00,,,0.00,meteohub,2013-01-18 09:29:00,
2013-01-18 03:34:00,39.4,31.5,30.54,North,0,1.0,2.0,73,0.00,,,0.00,meteohub,2013-01-18 09:34:00,
2013-01-18 03:39:00,39.0,31.5,30.54,North,0,2.0,2.0,74,0.00,,,0.00,meteohub,2013-01-18 09:39:00,
2013-01-18 03:44:00,38.5,30.9,30.54,North,0,2.0,2.0,74,0.00,,,0.00,meteohub,2013-01-18 09:44:00,
2013-01-18 03:49:00,38.1,30.6,30.54,North,0,2.0,2.0,74,0.00,,,0.00,meteohub,2013-01-18 09:49:00,
2013-01-18 03:54:00,37.9,30.4,30.53,NW,315,2.0,2.0,74,0.00,,,0.00,meteohub,2013-01-18 09:54:00,
2013-01-18 03:59:00,37.9,30.4,30.54,NW,315,2.0,2.0,74,0.00,,,0.00,meteohub,2013-01-18 09:59:00,
2013-01-18 04:04:00,37.8,30.2,30.54,NW,315,2.0,2.0,74,0.00,,,0.00,meteohub,2013-01-18 10:04:00,
2013-01-18 04:09:00,37.8,30.2,30.54,NW,315,2.0,2.0,74,0.00,,,0.00,meteohub,2013-01-18 10:09:00,
2013-01-18 04:27:00,36.1,27.7,30.53,NW,315,0.0,-999.0,71,0.00,,,0.00,meteohub,2013-01-18 10:27:00,
2013-01-18 04:32:00,36.1,27.7,30.53,NW,315,0.0,-999.0,71,0.00,,,0.00,meteohub,2013-01-18 10:32:00,
2013-01-18 04:37:00,36.1,27.7,30.53,NW,315,0.0,0.0,71,0.00,,,0.00,meteohub,2013-01-18 10:37:00,
2013-01-18 05:41:00,34.0,27.5,30.53,SW,225,0.0,-999.0,77,-99.99,,,0.00,meteohub,2013-01-18 11:41:00,
2013-01-18 05:46:00,33.8,27.3,30.53,SW,225,0.0,0.0,77,0.00,,,0.00,meteohub,2013-01-18 11:46:00,
2013-01-18 05:51:00,33.8,27.3,30.53,SW,225,0.0,0.0,77,0.00,,,0.00,meteohub,2013-01-18 11:51:00,
2013-01-18 05:56:00,33.8,27.3,30.53,SW,225,0.0,0.0,77,0.00,,,0.00,meteohub,2013-01-18 11:56:00,
2013-01-18 06:12:00,33.4,27.9,30.52,NW,315,0.0,-999.0,80,0.00,,,0.00,meteohub,2013-01-18 12:12:00,
2013-01-18 06:17:00,33.4,27.9,30.52,NW,315,0.0,0.0,80,0.00,,,0.00,meteohub,2013-01-18 12:17:00,
2013-01-18 06:22:00,33.4,27.9,30.52,NW,315,0.0,0.0,80,0.00,,,0.00,meteohub,2013-01-18 12:22:00,
2013-01-18 06:27:00,32.7,27.3,30.53,NW,315,0.0,0.0,80,0.00,,,0.00,meteohub,2013-01-18 12:27:00,
2013-01-18 06:32:00,32.7,27.3,30.52,NW,315,0.0,0.0,80,0.00,,,0.00,meteohub,2013-01-18 12:32:00,
2013-01-18 06:37:00,32.7,27.3,30.52,NW,315,0.0,0.0,80,0.00,,,0.00,meteohub,2013-01-18 12:37:00,
2013-01-18 06:42:00,32.7,27.5,30.52,NW,315,0.0,0.0,81,0.00,,,0.00,meteohub,2013-01-18 12:42:00,
2013-01-18 06:47:00,32.5,27.3,30.52,NW,315,0.0,0.0,81,0.00,,,0.00,meteohub,2013-01-18 12:47:00,
2013-01-18 06:52:00,32.5,27.3,30.52,NW,315,0.0,0.0,81,0.00,,,0.00,meteohub,2013-01-18 12:52:00,
2013-01-18 10:11:00,50.4,34.9,30.53,South,180,4.0,-999.0,55,-99.99,,,0.00,meteohub,2013-01-18 16:11:00,
2013-01-18 10:16:00,50.9,35.2,30.54,SE,135,4.0,4.0,55,0.00,,,0.00,meteohub,2013-01-18 16:16:00,
2013-01-18 10:21:00,50.9,35.2,30.53,SE,135,4.0,4.0,55,0.00,,,0.00,meteohub,2013-01-18 16:21:00,
2013-01-18 10:26:00,51.8,35.2,30.53,South,180,4.0,4.0,53,0.00,,,0.00,meteohub,2013-01-18 16:26:00,
2013-01-18 10:31:00,52.5,35.4,30.54,SW,225,4.0,8.0,52,0.00,,,0.00,meteohub,2013-01-18 16:31:00,
2013-01-18 10:36:00,53.4,35.8,30.53,SSE,158,6.0,8.0,51,0.00,,,0.00,meteohub,2013-01-18 16:36:00,
2013-01-18 10:41:00,53.6,35.4,30.53,SW,225,4.0,8.0,50,0.00,,,0.00,meteohub,2013-01-18 16:41:00,
2013-01-18 10:46:00,53.6,35.4,30.53,SW,225,4.0,6.0,50,0.00,,,0.00,meteohub,2013-01-18 16:46:00,
2013-01-18 10:51:00,54.7,35.4,30.53,South,180,4.0,6.0,48,0.00,,,0.00,meteohub,2013-01-18 16:51:00,
2013-01-18 10:56:00,55.2,35.4,30.53,South,180,8.0,8.0,47,0.00,,,0.00,meteohub,2013-01-18 16:56:00,
2013-01-18 11:01:00,55.4,34.3,30.53,East,90,5.0,8.0,45,0.00,,,0.00,meteohub,2013-01-18 17:01:00,
2013-01-18 11:06:00,55.8,34.7,30.52,SW,225,6.0,8.0,45,0.00,,,0.00,meteohub,2013-01-18 17:06:00,
2013-01-18 11:11:00,55.9,34.3,30.52,South,180,10.0,10.0,44,0.00,,,0.00,meteohub,2013-01-18 17:11:00,
2013-01-18 11:16:00,55.9,34.3,30.52,SE,135,10.0,10.0,44,0.00,,,0.00,meteohub,2013-01-18 17:16:00,
2013-01-18 11:21:00,55.8,34.2,30.51,SW,225,2.0,10.0,44,0.00,,,0.00,meteohub,2013-01-18 17:21:00,
2013-01-18 11:26:00,56.1,34.5,30.51,South,180,3.0,10.0,44,0.00,,,0.00,meteohub,2013-01-18 17:26:00,
2013-01-18 11:31:00,56.1,34.5,30.51,South,180,3.0,10.0,44,0.00,,,0.00,meteohub,2013-01-18 17:31:00,
2013-01-18 11:36:00,56.1,34.5,30.51,South,180,3.0,5.0,44,0.00,,,0.00,meteohub,2013-01-18 17:36:00,
2013-01-18 11:41:00,57.7,34.9,30.50,SW,225,9.0,9.0,42,0.00,,,0.00,meteohub,2013-01-18 17:41:00,
2013-01-18 11:46:00,57.7,34.9,30.50,SW,225,9.0,9.0,42,0.00,,,0.00,meteohub,2013-01-18 17:46:00,
2013-01-18 11:51:00,58.1,32.0,30.49,SW,225,6.0,9.0,37,0.00,,,0.00,meteohub,2013-01-18 17:51:00,
2013-01-18 11:56:00,58.1,32.0,30.49,SW,225,6.0,9.0,37,0.00,,,0.00,meteohub,2013-01-18 17:56:00,
2013-01-18 12:01:00,58.1,32.0,30.48,SW,225,6.0,9.0,37,0.00,,,0.00,meteohub,2013-01-18 18:01:00,
2013-01-18 12:07:00,59.2,32.2,30.48,NE,45,7.0,9.0,36,0.00,,,0.00,meteohub,2013-01-18 18:07:00,
2013-01-18 12:12:00,59.2,31.5,30.48,SW,225,11.0,11.0,35,0.00,,,0.00,meteohub,2013-01-18 18:12:00,
2013-01-18 12:17:00,59.2,31.5,30.47,South,180,5.0,11.0,35,0.00,,,0.00,meteohub,2013-01-18 18:17:00,
2013-01-18 12:22:00,59.5,31.1,30.46,South,180,8.0,11.0,34,0.00,,,0.00,meteohub,2013-01-18 18:22:00,
2013-01-18 12:27:00,59.7,31.3,30.46,SE,135,11.0,11.0,34,0.00,,,0.00,meteohub,2013-01-18 18:27:00,
2013-01-18 12:32:00,59.9,31.5,30.46,South,180,5.0,11.0,34,0.00,,,0.00,meteohub,2013-01-18 18:32:00,
2013-01-18 12:37:00,59.9,30.7,30.46,South,180,8.0,11.0,33,0.00,,,0.00,meteohub,2013-01-18 18:37:00,
2013-01-18 12:42:00,59.7,31.3,30.45,South,180,4.0,11.0,34,0.00,,,0.00,meteohub,2013-01-18 18:42:00,
2013-01-18 12:47:00,59.9,31.5,30.45,SW,225,11.0,11.0,34,0.00,,,0.00,meteohub,2013-01-18 18:47:00,
2013-01-18 12:52:00,59.9,31.5,30.45,SW,225,11.0,11.0,34,0.00,,,0.00,meteohub,2013-01-18 18:52:00,
2013-01-18 12:57:00,60.6,32.2,30.44,South,180,7.0,11.0,34,0.00,,,0.00,meteohub,2013-01-18 18:57:00,
2013-01-18 13:02:00,60.8,31.5,30.44,West,270,4.0,11.0,33,0.00,,,0.00,meteohub,2013-01-18 19:02:00,
2013-01-18 13:07:00,60.8,31.5,30.44,West,270,4.0,11.0,33,0.00,,,0.00,meteohub,2013-01-18 19:07:00,
2013-01-18 13:12:00,61.0,30.9,30.43,West,270,3.0,8.0,32,0.00,,,0.00,meteohub,2013-01-18 19:12:00,
2013-01-18 13:17:00,61.5,30.6,30.43,SE,135,6.0,13.0,31,0.00,,,0.00,meteohub,2013-01-18 19:17:00,
2013-01-18 13:22:00,61.3,29.7,30.42,South,180,9.0,13.0,30,0.00,,,0.00,meteohub,2013-01-18 19:22:00,
2013-01-18 13:27:00,61.3,29.7,30.42,South,180,9.0,9.0,30,0.00,,,0.00,meteohub,2013-01-18 19:27:00,
2013-01-18 13:32:00,61.7,30.0,30.42,SW,225,6.0,9.0,30,0.00,,,0.00,meteohub,2013-01-18 19:32:00,
2013-01-18 13:37:00,61.7,30.0,30.42,SW,225,8.0,9.0,30,0.00,,,0.00,meteohub,2013-01-18 19:37:00,
2013-01-18 13:43:00,62.1,29.5,30.41,South,180,7.0,9.0,29,0.00,,,0.00,meteohub,2013-01-18 19:43:00,
2013-01-18 13:48:00,62.1,29.5,30.41,SE,135,8.0,8.0,29,0.00,,,0.00,meteohub,2013-01-18 19:48:00,
2013-01-18 13:53:00,62.1,29.5,30.41,SE,135,8.0,8.0,29,0.00,,,0.00,meteohub,2013-01-18 19:53:00,
2013-01-18 15:41:00,62.6,29.1,30.37,NE,45,6.0,-999.0,28,-99.99,,,0.00,meteohub,2013-01-18 21:41:00,
2013-01-18 15:46:00,62.6,29.1,30.37,NE,45,6.0,6.0,28,0.00,,,0.00,meteohub,2013-01-18 21:46:00,
2013-01-18 15:51:00,62.6,29.1,30.37,NE,45,6.0,6.0,28,0.00,,,0.00,meteohub,2013-01-18 21:51:00,
2013-01-18 16:42:00,60.8,29.1,30.36,WNW,293,5.0,-999.0,30,0.00,,,0.00,meteohub,2013-01-18 22:42:00,
2013-01-18 16:47:00,60.8,29.1,30.36,WNW,293,5.0,-999.0,30,0.00,,,0.00,meteohub,2013-01-18 22:47:00,
2013-01-18 16:52:00,60.8,29.1,30.36,WNW,293,5.0,5.0,30,0.00,,,0.00,meteohub,2013-01-18 22:52:00,
2013-01-18 17:09:00,59.9,30.0,30.36,SW,225,4.0,5.0,32,0.00,,,0.00,meteohub,2013-01-18 23:09:00,
2013-01-18 17:14:00,59.7,29.8,30.35,South,180,4.0,-999.0,32,0.00,,,0.00,meteohub,2013-01-18 23:14:00,
2013-01-18 17:19:00,59.7,29.8,30.35,South,180,4.0,4.0,32,0.00,,,0.00,meteohub,2013-01-18 23:19:00,
2013-01-18 17:24:00,59.7,29.8,30.35,South,180,4.0,4.0,32,0.00,,,0.00,meteohub,2013-01-18 23:24:00,
2013-01-18 17:49:00,58.1,32.0,30.35,SE,135,3.0,-999.0,37,0.00,,,0.00,meteohub,2013-01-18 23:49:00,
2013-01-18 17:54:00,58.1,32.0,30.35,SE,135,3.0,-999.0,37,0.00,,,0.00,meteohub,2013-01-18 23:54:00,
2013-01-18 17:59:00,58.1,32.0,30.35,SE,135,3.0,3.0,37,0.00,,,0.00,meteohub,2013-01-18 23:59:00,
2013-01-18 18:08:00,57.0,32.9,30.35,SW,225,2.0,3.0,40,0.00,,,0.00,meteohub,2013-01-19 00:08:00,
2013-01-18 18:13:00,57.0,32.9,30.36,SW,225,2.0,3.0,40,0.00,,,0.00,meteohub,2013-01-19 00:13:00,
2013-01-18 18:18:00,57.0,32.9,30.35,SW,225,2.0,2.0,40,0.00,,,0.00,meteohub,2013-01-19 00:18:00,
2013-01-18 19:49:00,52.9,34.7,30.36,South,180,5.0,-999.0,50,-99.99,,,0.00,meteohub,2013-01-19 01:49:00,
2013-01-18 19:54:00,52.7,35.1,30.35,South,180,2.0,-999.0,51,0.00,,,0.00,meteohub,2013-01-19 01:54:00,
2013-01-18 19:59:00,52.5,34.9,30.35,East,90,6.0,6.0,51,0.00,,,0.00,meteohub,2013-01-19 01:59:00,
2013-01-18 20:04:00,52.5,34.9,30.35,East,90,6.0,6.0,51,0.00,,,0.00,meteohub,2013-01-19 02:04:00,
2013-01-18 20:10:00,52.5,34.9,30.35,East,90,6.0,6.0,51,0.00,,,0.00,meteohub,2013-01-19 02:10:00,
2013-01-18 20:15:00,52.3,34.7,30.35,South,180,4.0,6.0,51,0.00,,,0.00,meteohub,2013-01-19 02:15:00,
2013-01-18 20:20:00,52.3,34.7,30.35,South,180,4.0,6.0,51,0.00,,,0.00,meteohub,2013-01-19 02:20:00,
2013-01-18 20:25:00,52.3,34.7,30.35,SE,135,4.0,6.0,51,0.00,,,0.00,meteohub,2013-01-19 02:25:00,
2013-01-18 20:30:00,52.2,34.5,30.35,SE,135,5.0,6.0,51,0.00,,,0.00,meteohub,2013-01-19 02:30:00,
2013-01-18 20:35:00,52.2,34.5,30.35,South,180,6.0,6.0,51,0.00,,,0.00,meteohub,2013-01-19 02:35:00,
2013-01-18 20:40:00,51.8,34.7,30.35,SE,135,4.0,5.0,52,0.00,,,0.00,meteohub,2013-01-19 02:40:00,
2013-01-18 20:45:00,51.6,35.1,30.35,SE,135,4.0,6.0,53,0.00,,,0.00,meteohub,2013-01-19 02:45:00,
2013-01-18 20:50:00,51.6,35.1,30.34,South,180,2.0,6.0,53,0.00,,,0.00,meteohub,2013-01-19 02:50:00,
2013-01-18 20:55:00,51.4,35.4,30.35,SW,225,4.0,6.0,54,0.00,,,0.00,meteohub,2013-01-19 02:55:00,
2013-01-18 21:00:00,51.4,35.4,30.34,South,180,4.0,5.0,54,0.00,,,0.00,meteohub,2013-01-19 03:00:00,
2013-01-18 21:05:00,51.4,35.4,30.34,SE,135,2.0,5.0,54,0.00,,,0.00,meteohub,2013-01-19 03:05:00,
2013-01-18 21:10:00,51.3,35.6,30.34,SSW,203,4.0,4.0,55,0.00,,,0.00,meteohub,2013-01-19 03:10:00,
2013-01-18 21:15:00,51.3,35.6,30.34,South,180,2.0,4.0,55,0.00,,,0.00,meteohub,2013-01-19 03:15:00,
2013-01-18 21:20:00,51.1,35.4,30.34,SE,135,2.0,4.0,55,0.00,,,0.00,meteohub,2013-01-19 03:20:00,
2013-01-18 21:25:00,50.9,35.8,30.34,SE,135,2.0,4.0,56,0.00,,,0.00,meteohub,2013-01-19 03:25:00,
2013-01-18 21:30:00,50.9,35.8,30.34,South,180,3.0,4.0,56,0.00,,,0.00,meteohub,2013-01-19 03:30:00,
2013-01-18 21:35:00,50.7,35.6,30.34,East,90,2.0,4.0,56,0.00,,,0.00,meteohub,2013-01-19 03:35:00,
2013-01-18 21:40:00,50.5,35.4,30.33,SE,135,4.0,4.0,56,0.00,,,0.00,meteohub,2013-01-19 03:40:00,
2013-01-18 21:45:00,50.5,36.0,30.33,South,180,2.0,4.0,57,0.00,,,0.00,meteohub,2013-01-19 03:45:00,
2013-01-18 21:50:00,50.5,36.0,30.33,South,180,4.0,4.0,57,0.00,,,0.00,meteohub,2013-01-19 03:50:00,
2013-01-18 21:55:00,50.5,36.0,30.33,South,180,2.0,4.0,57,0.00,,,0.00,meteohub,2013-01-19 03:55:00,
2013-01-18 22:00:00,50.5,36.0,30.34,South,180,3.0,4.0,57,0.00,,,0.00,meteohub,2013-01-19 04:00:00,
2013-01-18 22:05:00,50.5,36.0,30.33,South,180,3.0,4.0,57,0.00,,,0.00,meteohub,2013-01-19 04:05:00,
2013-01-18 22:10:00,50.4,35.8,30.33,SW,225,2.0,3.0,57,0.00,,,0.00,meteohub,2013-01-19 04:10:00,
2013-01-18 22:15:00,50.2,35.6,30.33,South,180,2.0,4.0,57,0.00,,,0.00,meteohub,2013-01-19 04:15:00,
2013-01-18 22:20:00,50.2,35.6,30.33,South,180,2.0,4.0,57,0.00,,,0.00,meteohub,2013-01-19 04:20:00,
2013-01-18 22:25:00,50.0,35.4,30.33,South,180,3.0,4.0,57,0.00,,,0.00,meteohub,2013-01-19 04:25:00,
2013-01-18 22:30:00,50.0,35.4,30.32,South,180,2.0,3.0,57,0.00,,,0.00,meteohub,2013-01-19 04:30:00,
2013-01-18 22:35:00,50.0,35.4,30.32,SW,225,6.0,6.0,57,0.00,,,0.00,meteohub,2013-01-19 04:35:00,
2013-01-18 22:40:00,50.2,35.6,30.32,SE,135,3.0,6.0,57,0.00,,,0.00,meteohub,2013-01-19 04:40:00,
2013-01-18 22:46:00,50.2,35.6,30.32,South,180,2.0,6.0,57,0.00,,,0.00,meteohub,2013-01-19 04:46:00,
2013-01-18 22:51:00,50.2,35.6,30.32,SW,225,4.0,6.0,57,0.00,,,0.00,meteohub,2013-01-19 04:51:00,
2013-01-18 22:56:00,50.4,35.8,30.32,SW,225,4.0,4.0,57,0.00,,,0.00,meteohub,2013-01-19 04:56:00,
2013-01-18 23:02:00,50.4,35.2,30.32,South,180,4.0,4.0,56,0.00,,,0.00,meteohub,2013-01-19 05:02:00,
2013-01-18 23:03:00,50.4,35.2,30.32,SE,135,2.0,4.0,56,0.00,,,0.00,meteohub,2013-01-19 05:03:00,
2013-01-18 23:08:00,50.4,35.2,30.32,North,0,3.0,4.0,56,0.00,,,0.00,meteohub,2013-01-19 05:08:00,
2013-01-18 23:13:00,50.2,35.1,30.32,SW,225,2.0,4.0,56,0.00,,,0.00,meteohub,2013-01-19 05:13:00,
2013-01-18 23:18:00,50.0,34.9,30.31,South,180,3.0,4.0,56,0.00,,,0.00,meteohub,2013-01-19 05:18:00,
2013-01-18 23:23:00,50.0,34.9,30.32,South,180,3.0,4.0,56,0.00,,,0.00,meteohub,2013-01-19 05:23:00,
2013-01-18 23:28:00,50.2,35.1,30.31,SW,225,4.0,4.0,56,0.00,,,0.00,meteohub,2013-01-19 05:28:00,
2013-01-18 23:33:00,50.2,35.1,30.31,South,180,4.0,4.0,56,0.00,,,0.00,meteohub,2013-01-19 05:33:00,
2013-01-18 23:38:00,50.4,34.9,30.31,SE,135,4.0,4.0,55,0.00,,,0.00,meteohub,2013-01-19 05:38:00,
2013-01-18 23:44:00,50.5,35.1,30.31,South,180,4.0,7.0,55,0.00,,,0.00,meteohub,2013-01-19 05:44:00,
2013-01-18 23:49:00,50.5,34.5,30.31,South,180,4.0,7.0,54,0.00,,,0.00,meteohub,2013-01-19 05:49:00,
2013-01-18 23:54:00,50.5,34.5,30.31,East,90,3.0,7.0,54,0.00,,,0.00,meteohub,2013-01-19 05:54:00,
2013-01-18 23:59:00,50.5,34.5,30.31,NW,315,5.0,6.0,54,0.00,,,0.00,meteohub,2013-01-19 05:59:00,